Time;durP1;ratioP1;P1;durP2;ratioP2;P2;SDS_P1;SDS_P2;PMS_P1;PMS_P2;Temp;Humidity;BMP_temperature;BMP_pressure;BME280_temperature;BME280_humidity;BME280_pressure;Samples;Min_cycle;Max_cycle;Signal;HPM_P1;HPM_P2
2021/10/11 00:00:45;;;;;;;16.83;12.13;;;8.30;99.90;;;;;;5114672;28;20841;-69
2021/10/11 00:03:11;;;;;;;15.20;12.20;;;8.30;99.90;;;;;;5114690;28;20466;-69
2021/10/11 00:05:38;;;;;;;14.20;11.90;;;8.20;99.90;;;;;;5114805;28;20485;-69
2021/10/11 00:08:06;;;;;;;21.90;12.07;;;8.20;99.90;;;;;;5114200;28;20917;-69
2021/10/11 00:10:33;;;;;;;14.90;12.30;;;8.20;99.90;;;;;;5114798;28;20460;-69
2021/10/11 00:13:01;;;;;;;21.53;13.30;;;8.20;99.90;;;;;;5114653;28;20455;-69
2021/10/11 00:15:28;;;;;;;16.20;12.30;;;8.10;99.90;;;;;;5118116;28;20782;-69
2021/10/11 00:17:55;;;;;;;14.27;11.37;;;8.10;99.90;;;;;;5118268;28;20791;-68
2021/10/11 00:20:23;;;;;;;15.33;12.00;;;8.10;99.90;;;;;;5118216;28;20863;-69
2021/10/11 00:22:49;;;;;;;18.00;12.33;;;8.10;99.90;;;;;;5118472;28;20459;-69
2021/10/11 00:25:16;;;;;;;18.07;12.70;;;8.10;99.90;;;;;;5117762;28;20533;-69
2021/10/11 00:27:43;;;;;;;18.73;12.60;;;8.00;99.90;;;;;;5117766;27;20452;-69
2021/10/11 00:30:13;;;;;;;17.87;12.20;;;8.10;99.90;;;;;;5117717;28;20484;-69
2021/10/11 00:32:41;;;;;;;17.97;12.80;;;8.00;99.90;;;;;;5118030;28;20463;-69
2021/10/11 00:35:08;;;;;;;14.50;11.30;;;8.00;99.90;;;;;;5117567;28;20460;-68
2021/10/11 00:37:37;;;;;;;18.37;12.70;;;8.00;99.90;;;;;;5117831;28;20481;-68
2021/10/11 00:40:06;;;;;;;15.93;11.70;;;8.00;99.90;;;;;;5117681;28;20462;-68
2021/10/11 00:42:33;;;;;;;18.00;12.33;;;8.00;99.90;;;;;;5117317;28;20467;-68
2021/10/11 00:45:00;;;;;;;15.20;11.03;;;8.00;99.90;;;;;;5117363;28;20913;-68
2021/10/11 00:47:28;;;;;;;17.20;12.87;;;8.00;99.90;;;;;;5117529;28;20521;-68
2021/10/11 00:49:55;;;;;;;17.23;12.60;;;8.00;99.90;;;;;;5117172;28;20552;-69
2021/10/11 00:52:22;;;;;;;17.70;12.37;;;8.00;99.90;;;;;;5117647;28;20843;-69
2021/10/11 00:54:50;;;;;;;15.80;11.80;;;7.90;99.90;;;;;;5117127;28;20467;-69
2021/10/11 00:57:17;;;;;;;19.20;12.70;;;7.90;99.90;;;;;;5117456;28;20460;-68
2021/10/11 00:59:44;;;;;;;17.07;12.20;;;7.90;99.90;;;;;;5117278;28;20796;-69
2021/10/11 01:02:11;;;;;;;16.00;12.30;;;7.90;99.90;;;;;;5117212;27;20529;-69
2021/10/11 01:04:39;;;;;;;15.23;12.13;;;7.90;99.90;;;;;;5117393;28;20520;-69
2021/10/11 01:07:06;;;;;;;18.10;12.10;;;7.90;99.90;;;;;;5117059;28;20467;-69
2021/10/11 01:09:32;;;;;;;17.10;13.10;;;7.80;99.90;;;;;;5117020;28;20483;-69
2021/10/11 01:11:59;;;;;;;17.67;12.30;;;7.80;99.90;;;;;;5116747;28;20457;-69
2021/10/11 01:14:26;;;;;;;24.73;12.90;;;7.80;99.90;;;;;;5117044;28;20456;-69
2021/10/11 01:16:53;;;;;;;19.40;12.80;;;7.80;99.90;;;;;;5117256;28;20456;-69
2021/10/11 01:19:20;;;;;;;16.63;12.60;;;7.80;99.90;;;;;;5116760;28;20488;-69
2021/10/11 01:21:48;;;;;;;18.50;12.20;;;7.80;99.90;;;;;;5116859;28;20462;-69
2021/10/11 01:24:14;;;;;;;17.27;13.13;;;7.80;99.90;;;;;;5116735;28;20473;-69
2021/10/11 01:26:43;;;;;;;17.13;13.13;;;7.70;99.90;;;;;;5116963;28;20452;-69
2021/10/11 01:29:12;;;;;;;15.53;11.90;;;7.70;99.90;;;;;;5116363;28;20480;-68
2021/10/11 01:31:39;;;;;;;16.10;12.53;;;7.70;99.90;;;;;;5116791;28;20460;-70
2021/10/11 01:34:06;;;;;;;14.80;11.23;;;7.70;99.90;;;;;;5116515;28;20900;-70
2021/10/11 01:36:33;;;;;;;17.77;12.07;;;7.70;99.90;;;;;;5116432;28;20823;-70
2021/10/11 01:39:03;;;;;;;16.23;12.20;;;7.70;99.90;;;;;;5116294;28;20453;-70
2021/10/11 01:41:30;;;;;;;20.20;12.90;;;7.70;99.90;;;;;;5116503;28;20806;-70
2021/10/11 01:43:57;;;;;;;17.87;12.33;;;7.70;99.90;;;;;;5116573;28;20453;-69
2021/10/11 01:46:24;;;;;;;17.80;12.20;;;7.70;99.90;;;;;;5116194;28;20536;-70
2021/10/11 01:48:51;;;;;;;20.17;13.00;;;7.70;99.90;;;;;;5116129;28;20503;-69
2021/10/11 01:51:19;;;;;;;20.00;12.77;;;7.70;99.90;;;;;;5116131;27;20918;-69
2021/10/11 01:53:46;;;;;;;20.10;12.57;;;7.70;99.90;;;;;;5116357;28;20496;-69
2021/10/11 01:56:14;;;;;;;15.87;11.33;;;7.80;99.90;;;;;;5116311;28;20517;-69
2021/10/11 01:58:41;;;;;;;15.33;11.10;;;7.80;99.90;;;;;;5116279;28;20459;-69
2021/10/11 02:01:08;;;;;;;15.80;11.70;;;7.80;99.90;;;;;;5115811;27;20798;-70
2021/10/11 02:03:34;;;;;;;16.33;12.27;;;7.80;99.90;;;;;;5116391;28;20939;-70
2021/10/11 02:06:01;;;;;;;18.90;12.07;;;7.80;99.90;;;;;;5115877;28;20470;-69
2021/10/11 02:08:28;;;;;;;15.80;12.37;;;7.80;99.90;;;;;;5116108;28;20787;-70
2021/10/11 02:10:55;;;;;;;22.13;12.70;;;7.80;99.90;;;;;;5115827;28;20490;-68
2021/10/11 02:13:23;;;;;;;21.47;13.00;;;7.80;99.90;;;;;;5115665;28;20932;-68
2021/10/11 02:15:50;;;;;;;17.90;12.90;;;7.80;99.90;;;;;;5115844;28;20839;-68
2021/10/11 02:18:17;;;;;;;16.70;12.23;;;7.80;99.90;;;;;;5115842;28;20468;-69
2021/10/11 02:20:43;;;;;;;17.33;12.50;;;7.80;99.90;;;;;;5115427;28;20915;-69
2021/10/11 02:23:10;;;;;;;18.13;12.90;;;7.90;99.90;;;;;;5115813;28;20470;-70
2021/10/11 02:25:37;;;;;;;24.80;13.53;;;7.90;99.90;;;;;;5115817;28;20471;-69
2021/10/11 02:28:03;;;;;;;15.00;11.70;;;8.00;99.90;;;;;;5115139;28;20937;-69
2021/10/11 02:30:32;;;;;;;17.17;12.80;;;8.00;99.90;;;;;;5115519;28;20494;-69
2021/10/11 02:32:59;;;;;;;15.20;11.90;;;8.10;99.90;;;;;;5115915;28;20460;-69
2021/10/11 02:35:26;;;;;;;14.27;12.37;;;8.10;99.90;;;;;;5115099;28;20455;-69
2021/10/11 02:37:52;;;;;;;15.70;11.57;;;8.10;99.90;;;;;;5115440;28;20476;-69
2021/10/11 02:40:19;;;;;;;21.70;12.87;;;8.20;99.90;;;;;;5115205;28;20448;-69
2021/10/11 02:42:46;;;;;;;17.80;11.70;;;8.20;99.90;;;;;;5115533;28;20456;-69
2021/10/11 02:45:13;;;;;;;17.07;12.57;;;8.20;99.90;;;;;;5114954;28;20951;-70
2021/10/11 02:47:41;;;;;;;15.90;11.80;;;8.20;99.90;;;;;;5115212;28;20452;-69
2021/10/11 02:50:09;;;;;;;20.17;11.43;;;8.20;99.90;;;;;;5114768;28;20960;-69
2021/10/11 02:52:36;;;;;;;20.00;11.17;;;8.20;99.90;;;;;;5115269;28;20474;-72
2021/10/11 02:55:04;;;;;;;17.73;12.07;;;8.20;99.90;;;;;;5115341;28;20463;-69
2021/10/11 02:57:31;;;;;;;18.50;11.97;;;8.20;99.90;;;;;;5114767;28;20910;-69
2021/10/11 02:59:58;;;;;;;15.30;11.43;;;8.20;99.90;;;;;;5115329;28;20471;-70
2021/10/11 03:02:25;;;;;;;16.57;12.00;;;8.20;99.90;;;;;;5115289;28;20479;-69
2021/10/11 03:04:53;;;;;;;16.70;11.57;;;8.20;99.90;;;;;;5115155;28;20464;-69
2021/10/11 03:07:20;;;;;;;15.33;11.80;;;8.20;99.90;;;;;;5115190;28;20453;-69
2021/10/11 03:09:47;;;;;;;16.13;11.87;;;8.20;99.90;;;;;;5114688;28;20481;-69
2021/10/11 03:12:14;;;;;;;16.80;12.77;;;8.20;99.90;;;;;;5114893;28;20467;-69
2021/10/11 03:14:40;;;;;;;16.03;11.47;;;8.20;99.90;;;;;;5114993;28;20467;-69
2021/10/11 03:17:07;;;;;;;15.70;12.00;;;8.20;99.90;;;;;;5115213;28;20456;-69
2021/10/11 03:19:34;;;;;;;17.73;13.60;;;8.20;99.90;;;;;;5115217;28;20455;-69
2021/10/11 03:22:03;;;;;;;15.43;11.80;;;8.10;99.90;;;;;;5114494;28;20463;-69
2021/10/11 03:24:29;;;;;;;16.30;12.67;;;8.20;99.90;;;;;;5115006;28;20531;-69
2021/10/11 03:26:56;;;;;;;18.83;12.60;;;8.10;99.90;;;;;;5115108;28;20456;-69
2021/10/11 03:29:23;;;;;;;16.90;12.20;;;8.10;99.90;;;;;;5114814;28;20483;-70
2021/10/11 03:31:50;;;;;;;17.57;12.97;;;8.20;99.90;;;;;;5115055;28;20780;-69
2021/10/11 03:34:17;;;;;;;17.57;13.20;;;8.20;99.90;;;;;;5114651;28;20467;-70
2021/10/11 03:36:43;;;;;;;15.27;12.30;;;8.20;99.90;;;;;;5114897;28;20455;-69
2021/10/11 03:39:12;;;;;;;16.37;12.87;;;8.20;99.90;;;;;;5114766;28;20783;-69
2021/10/11 03:41:38;;;;;;;16.17;12.43;;;8.20;99.90;;;;;;5115121;28;20459;-69
2021/10/11 03:44:05;;;;;;;18.93;12.10;;;8.20;99.90;;;;;;5114416;28;20936;-70
2021/10/11 03:46:32;;;;;;;21.13;12.20;;;8.20;99.90;;;;;;5114630;28;20459;-69
2021/10/11 03:48:59;;;;;;;17.97;12.30;;;8.20;99.90;;;;;;5116991;28;20480;-69
2021/10/11 03:51:26;;;;;;;18.80;13.00;;;8.20;99.90;;;;;;5118260;28;20958;-69
2021/10/11 03:53:52;;;;;;;16.47;12.03;;;8.20;99.90;;;;;;5118324;28;20451;-69
2021/10/11 03:56:21;;;;;;;15.93;12.00;;;8.20;99.90;;;;;;5118357;28;20467;-69
2021/10/11 03:58:48;;;;;;;18.07;12.27;;;8.20;99.90;;;;;;5118211;28;20462;-69
2021/10/11 04:01:15;;;;;;;17.30;13.17;;;8.20;99.90;;;;;;5118634;28;20462;-70
2021/10/11 04:03:41;;;;;;;15.80;12.10;;;8.20;99.90;;;;;;5118642;28;20938;-70
2021/10/11 04:06:08;;;;;;;21.30;11.63;;;8.20;99.90;;;;;;5118575;28;20456;-69
2021/10/11 04:08:39;;;;;;;17.90;12.33;;;8.20;99.90;;;;;;5118483;28;20455;-70
2021/10/11 04:11:09;;;;;;;17.60;12.40;;;8.20;99.90;;;;;;5118235;28;20558;-70
2021/10/11 04:13:37;;;;;;;16.90;12.87;;;8.30;99.90;;;;;;5118648;28;20536;-69
2021/10/11 04:16:05;;;;;;;15.83;12.70;;;8.30;99.90;;;;;;5118684;28;20468;-69
2021/10/11 04:18:32;;;;;;;17.80;12.70;;;8.30;99.90;;;;;;5118438;28;20456;-69
2021/10/11 04:20:59;;;;;;;16.77;13.00;;;8.30;99.90;;;;;;5118115;28;20452;-69
2021/10/11 04:23:26;;;;;;;18.80;13.43;;;8.30;99.90;;;;;;5119379;28;20473;-69
2021/10/11 04:25:52;;;;;;;20.50;14.00;;;8.30;99.90;;;;;;5118653;28;20491;-69
2021/10/11 04:28:19;;;;;;;18.07;12.73;;;8.30;99.90;;;;;;5118256;28;20464;-70
2021/10/11 04:30:48;;;;;;;20.20;13.67;;;8.30;99.90;;;;;;5117842;28;20796;-70
2021/10/11 04:33:16;;;;;;;19.17;13.83;;;8.30;99.90;;;;;;5118025;28;20459;-69
2021/10/11 04:35:45;;;;;;;19.40;14.20;;;8.40;99.90;;;;;;5117481;28;20924;-69
2021/10/11 04:38:12;;;;;;;17.93;12.63;;;8.40;99.90;;;;;;5117845;28;20479;-70
2021/10/11 04:40:39;;;;;;;19.00;12.83;;;8.30;99.90;;;;;;5117845;27;20911;-70
2021/10/11 04:43:06;;;;;;;18.20;13.60;;;8.40;99.90;;;;;;5118149;28;20513;-69
2021/10/11 04:45:33;;;;;;;22.57;13.87;;;8.40;99.90;;;;;;5118011;28;20463;-70
2021/10/11 04:48:03;;;;;;;16.53;12.63;;;8.40;99.90;;;;;;5117679;28;20539;-70
2021/10/11 04:50:32;;;;;;;20.33;13.13;;;8.40;99.90;;;;;;5117714;27;20785;-70
2021/10/11 04:52:59;;;;;;;14.07;11.70;;;8.40;99.90;;;;;;5117611;28;20851;-69
2021/10/11 04:55:26;;;;;;;22.00;13.40;;;8.40;99.90;;;;;;5117440;28;20460;-70
2021/10/11 04:57:53;;;;;;;22.83;14.47;;;8.40;99.90;;;;;;5117657;28;20463;-69
2021/10/11 05:00:20;;;;;;;20.33;13.37;;;8.40;99.90;;;;;;5116645;28;20474;-69
2021/10/11 05:02:47;;;;;;;18.73;13.33;;;8.40;99.90;;;;;;5117014;28;20491;-69
2021/10/11 05:05:15;;;;;;;22.23;13.87;;;8.40;99.90;;;;;;5117562;28;20488;-69
2021/10/11 05:07:42;;;;;;;20.70;13.73;;;8.30;99.90;;;;;;5117410;28;20469;-69
2021/10/11 05:10:09;;;;;;;16.10;12.87;;;8.30;99.90;;;;;;5117197;27;20476;-69
2021/10/11 05:12:38;;;;;;;25.93;15.70;;;8.30;99.90;;;;;;5117006;28;20468;-69
2021/10/11 05:15:06;;;;;;;21.40;14.70;;;8.30;99.90;;;;;;5116801;28;20460;-69
2021/10/11 05:17:33;;;;;;;26.50;15.47;;;8.30;99.90;;;;;;5117045;28;20459;-69
2021/10/11 05:20:01;;;;;;;22.83;16.80;;;8.30;99.90;;;;;;5116876;28;20815;-69
2021/10/11 05:22:29;;;;;;;21.97;16.33;;;8.30;99.90;;;;;;5116681;28;20467;-70
2021/10/11 05:24:56;;;;;;;23.97;17.17;;;8.30;99.90;;;;;;5116717;28;20793;-69
2021/10/11 05:27:25;;;;;;;24.13;15.70;;;8.30;99.90;;;;;;5117050;28;20813;-69
2021/10/11 05:29:51;;;;;;;22.03;14.20;;;8.30;99.90;;;;;;5116364;28;20485;-69
2021/10/11 05:32:18;;;;;;;19.47;13.87;;;8.30;99.90;;;;;;5116912;28;20517;-69
2021/10/11 05:34:45;;;;;;;25.67;16.73;;;8.40;99.90;;;;;;5116498;28;20460;-69
2021/10/11 05:37:12;;;;;;;21.73;13.57;;;8.40;99.90;;;;;;5116731;28;20465;-69
2021/10/11 05:39:41;;;;;;;16.73;13.33;;;8.40;99.90;;;;;;5116496;28;20489;-69
2021/10/11 05:42:08;;;;;;;21.93;14.60;;;8.40;99.90;;;;;;5116498;28;20470;-70
2021/10/11 05:44:35;;;;;;;19.80;13.33;;;8.40;99.90;;;;;;5116320;28;20506;-69
2021/10/11 05:47:02;;;;;;;23.17;14.63;;;8.40;99.90;;;;;;5117027;28;20464;-68
2021/10/11 05:49:32;;;;;;;19.60;13.70;;;8.30;99.90;;;;;;5116142;28;20552;-68
2021/10/11 05:52:01;;;;;;;19.57;13.17;;;8.30;99.90;;;;;;5116458;28;20491;-69
2021/10/11 05:54:30;;;;;;;22.50;14.70;;;8.30;99.90;;;;;;5117239;28;20489;-69
2021/10/11 05:56:58;;;;;;;17.77;13.60;;;8.30;99.90;;;;;;5117536;28;20544;-69
2021/10/11 05:59:25;;;;;;;22.27;14.30;;;8.30;99.90;;;;;;5118483;28;20466;-70
2021/10/11 06:01:51;;;;;;;20.00;14.93;;;8.30;99.90;;;;;;5117453;28;20463;-70
2021/10/11 06:04:18;;;;;;;25.90;15.70;;;8.30;99.90;;;;;;5117008;28;20449;-70
2021/10/11 06:06:45;;;;;;;22.50;16.40;;;8.30;99.90;;;;;;5116561;28;20821;-70
2021/10/11 06:09:11;;;;;;;20.60;15.87;;;8.40;99.90;;;;;;5116041;28;20502;-70
2021/10/11 06:11:39;;;;;;;25.90;14.90;;;8.40;99.90;;;;;;5114934;27;20483;-70
2021/10/11 06:14:07;;;;;;;23.40;16.70;;;8.40;99.90;;;;;;5116153;28;20468;-70
2021/10/11 06:16:34;;;;;;;24.33;15.87;;;8.40;99.90;;;;;;5115928;28;20464;-70
2021/10/11 06:19:01;;;;;;;24.83;15.70;;;8.40;99.90;;;;;;5115759;28;20476;-68
2021/10/11 06:21:27;;;;;;;23.33;15.73;;;8.50;99.90;;;;;;5115857;28;20509;-69
2021/10/11 06:23:55;;;;;;;18.30;15.33;;;8.50;99.90;;;;;;5115728;28;20453;-69
2021/10/11 06:26:21;;;;;;;26.37;17.33;;;8.50;99.90;;;;;;5115586;28;20972;-69
2021/10/11 06:28:48;;;;;;;22.73;16.27;;;8.60;99.90;;;;;;5115786;28;20479;-69
2021/10/11 06:31:16;;;;;;;24.70;14.87;;;8.50;99.90;;;;;;5115815;28;20484;-69
2021/10/11 06:33:43;;;;;;;19.00;14.90;;;8.50;99.90;;;;;;5115254;28;20538;-69
2021/10/11 06:36:10;;;;;;;21.40;15.30;;;8.60;99.90;;;;;;5115686;28;20459;-69
2021/10/11 06:38:36;;;;;;;23.20;16.53;;;8.60;99.90;;;;;;5115440;28;20482;-69
2021/10/11 06:41:03;;;;;;;23.90;16.30;;;8.60;99.90;;;;;;5115306;28;20507;-69
2021/10/11 06:43:30;;;;;;;22.50;16.80;;;8.70;99.90;;;;;;5115929;28;20460;-70
2021/10/11 06:45:57;;;;;;;27.30;17.60;;;8.70;99.90;;;;;;5115995;28;20485;-71
2021/10/11 06:48:25;;;;;;;24.23;15.63;;;8.80;99.90;;;;;;5116182;28;20482;-70
2021/10/11 06:50:52;;;;;;;25.50;17.80;;;8.90;99.90;;;;;;5115125;28;20507;-69
2021/10/11 06:53:19;;;;;;;25.70;18.33;;;8.90;99.90;;;;;;5114972;28;20460;-70
2021/10/11 06:55:45;;;;;;;28.13;19.17;;;9.00;99.90;;;;;;5114984;28;20454;-70
2021/10/11 06:58:12;;;;;;;27.87;19.73;;;9.10;99.90;;;;;;5114724;27;20911;-69
2021/10/11 07:00:39;;;;;;;23.43;17.37;;;9.10;99.90;;;;;;5114808;28;20477;-69
2021/10/11 07:03:06;;;;;;;30.63;18.00;;;9.10;99.90;;;;;;5115051;28;20461;-70
2021/10/11 07:05:35;;;;;;;27.67;18.77;;;9.10;99.90;;;;;;5114689;28;20944;-70
2021/10/11 07:08:08;;;;;;;28.00;18.90;;;9.10;99.90;;;;;;5115341;28;20445;-69
2021/10/11 07:10:35;;;;;;;29.70;19.30;;;9.20;99.90;;;;;;5115196;28;20843;-68
2021/10/11 07:13:02;;;;;;;27.40;19.37;;;9.20;99.90;;;;;;5114763;28;20454;-69
2021/10/11 07:15:29;;;;;;;32.83;19.30;;;9.30;99.90;;;;;;5114895;28;20783;-69
2021/10/11 07:17:56;;;;;;;29.00;20.17;;;9.30;99.90;;;;;;5115302;28;20499;-70
2021/10/11 07:20:23;;;;;;;29.57;20.17;;;9.30;99.90;;;;;;5114805;28;20468;-70
2021/10/11 07:22:51;;;;;;;29.03;20.53;;;9.30;99.90;;;;;;5117151;28;20511;-70
2021/10/11 07:25:18;;;;;;;35.80;23.50;;;9.40;99.90;;;;;;5119279;28;20456;-70
2021/10/11 07:27:45;;;;;;;30.80;21.90;;;9.40;99.90;;;;;;5118938;28;20456;-69
2021/10/11 07:30:12;;;;;;;31.47;21.60;;;9.40;99.90;;;;;;5118969;28;20471;-70
2021/10/11 07:32:39;;;;;;;37.87;23.20;;;9.50;99.90;;;;;;5119661;28;20457;-69
2021/10/11 07:35:05;;;;;;;30.07;22.07;;;9.40;99.90;;;;;;5119283;28;20764;-70
2021/10/11 07:37:32;;;;;;;33.27;22.83;;;9.40;99.90;;;;;;5118415;27;20464;-69
2021/10/11 07:40:00;;;;;;;31.83;21.70;;;9.40;99.90;;;;;;5119068;28;20860;-69
2021/10/11 07:42:27;;;;;;;35.87;23.37;;;9.40;99.90;;;;;;5119057;28;20467;-69
2021/10/11 07:44:53;;;;;;;31.17;22.63;;;9.40;99.90;;;;;;5118892;28;20788;-69
2021/10/11 07:47:20;;;;;;;34.80;22.63;;;9.40;99.90;;;;;;5119302;28;20454;-69
2021/10/11 07:49:47;;;;;;;31.40;20.13;;;9.40;99.90;;;;;;5118404;28;20476;-69
2021/10/11 07:52:13;;;;;;;33.70;22.50;;;9.40;99.90;;;;;;5118494;28;20486;-69
2021/10/11 07:54:40;;;;;;;38.40;22.97;;;9.40;99.90;;;;;;5118206;28;20464;-70
2021/10/11 07:57:08;;;;;;;37.53;21.50;;;9.40;99.90;;;;;;5118196;28;20916;-69
2021/10/11 07:59:35;;;;;;;31.07;21.57;;;9.50;99.90;;;;;;5118285;28;20456;-69
2021/10/11 08:02:02;;;;;;;32.47;21.60;;;9.50;99.90;;;;;;5118014;27;20540;-69
2021/10/11 08:04:28;;;;;;;32.27;21.50;;;9.50;99.90;;;;;;5118411;28;20454;-70
2021/10/11 08:06:55;;;;;;;38.07;21.10;;;9.50;99.90;;;;;;5118007;28;20458;-69
2021/10/11 08:09:22;;;;;;;36.03;23.10;;;9.60;99.90;;;;;;5118272;27;20776;-70
2021/10/11 08:11:48;;;;;;;35.50;22.90;;;9.60;99.90;;;;;;5118136;28;20479;-70
2021/10/11 08:14:17;;;;;;;35.00;22.57;;;9.60;99.90;;;;;;5118300;28;20465;-70
2021/10/11 08:16:43;;;;;;;33.20;22.43;;;9.60;99.90;;;;;;5118422;28;20461;-69
2021/10/11 08:19:10;;;;;;;34.90;22.80;;;9.60;99.90;;;;;;5118338;27;20463;-71
2021/10/11 08:21:37;;;;;;;36.00;23.20;;;9.50;99.90;;;;;;5118344;28;20460;-69
2021/10/11 08:24:05;;;;;;;36.77;22.23;;;9.50;99.90;;;;;;5118395;28;20522;-69
2021/10/11 08:26:34;;;;;;;33.90;22.50;;;9.50;99.90;;;;;;5118846;28;20868;-69
2021/10/11 08:29:02;;;;;;;35.50;20.83;;;9.40;99.90;;;;;;5120120;28;20603;-70
2021/10/11 08:31:32;;;;;;;35.57;22.50;;;9.50;99.90;;;;;;5123407;28;20486;-70
2021/10/11 08:33:59;;;;;;;37.13;23.10;;;9.40;99.90;;;;;;5121365;28;20449;-70
2021/10/11 08:36:25;;;;;;;31.70;22.67;;;9.40;99.90;;;;;;5123274;28;20470;-70
2021/10/11 08:38:52;;;;;;;33.80;21.83;;;9.40;99.90;;;;;;5123348;28;20464;-70
2021/10/11 08:41:19;;;;;;;33.13;23.87;;;9.40;99.90;;;;;;5124043;28;20456;-70
2021/10/11 08:43:45;;;;;;;40.07;23.47;;;9.50;99.90;;;;;;5125512;28;20574;-69
2021/10/11 08:46:12;;;;;;;36.83;22.30;;;9.50;99.90;;;;;;5129087;28;20460;-70
2021/10/11 08:48:41;;;;;;;34.40;22.70;;;9.60;99.90;;;;;;5122873;28;20498;-69
2021/10/11 08:51:09;;;;;;;33.10;24.20;;;9.60;99.90;;;;;;5118376;28;21008;-69
2021/10/11 08:53:36;;;;;;;36.50;23.50;;;9.60;99.90;;;;;;5120164;28;20459;-69
2021/10/11 08:56:03;;;;;;;33.30;24.87;;;9.60;99.90;;;;;;5117933;28;20823;-69
2021/10/11 08:58:41;;;;;;;33.80;23.30;;;9.70;99.90;;;;;;5117794;28;20464;-69
2021/10/11 09:01:08;;;;;;;31.83;21.90;;;9.80;99.90;;;;;;5117798;28;20751;-70
2021/10/11 09:03:35;;;;;;;34.30;22.80;;;9.80;99.90;;;;;;5117416;28;20460;-68
2021/10/11 09:06:07;;;;;;;38.90;24.73;;;9.90;99.90;;;;;;5117294;28;20456;-70
2021/10/11 09:08:34;;;;;;;33.60;23.03;;;9.80;99.90;;;;;;5117039;28;20458;-70
2021/10/11 09:11:03;;;;;;;35.87;22.87;;;9.90;99.90;;;;;;5117234;27;20453;-70
2021/10/11 09:13:31;;;;;;;36.40;23.70;;;10.00;99.90;;;;;;5117534;28;20459;-70
2021/10/11 09:16:07;;;;;;;31.10;22.20;;;10.10;99.90;;;;;;5116862;28;20459;-70
2021/10/11 09:18:35;;;;;;;40.20;23.90;;;10.20;99.90;;;;;;5116672;28;20960;-70
2021/10/11 09:21:01;;;;;;;36.80;22.83;;;10.20;99.90;;;;;;5116675;28;20452;-70
2021/10/11 09:23:30;;;;;;;40.70;23.30;;;10.20;99.90;;;;;;5116964;28;20457;-70
2021/10/11 09:25:58;;;;;;;35.03;23.63;;;10.20;99.90;;;;;;5116891;28;20453;-69
2021/10/11 09:28:26;;;;;;;35.57;22.67;;;10.30;99.90;;;;;;5116840;28;20457;-70
2021/10/11 09:30:54;;;;;;;34.23;23.13;;;10.30;99.90;;;;;;5116289;28;20469;-70
2021/10/11 09:33:22;;;;;;;31.27;21.20;;;10.40;99.90;;;;;;5116750;28;20476;-68
2021/10/11 09:35:51;;;;;;;34.70;22.40;;;10.50;99.90;;;;;;5116194;28;20463;-70
2021/10/11 09:38:20;;;;;;;28.20;20.03;;;10.70;99.90;;;;;;5116605;28;20788;-69
2021/10/11 09:40:49;;;;;;;32.27;21.63;;;10.90;99.90;;;;;;5116341;28;20452;-69
2021/10/11 09:43:17;;;;;;;30.47;21.90;;;11.10;99.90;;;;;;5116894;28;20453;-69
2021/10/11 09:45:45;;;;;;;34.87;20.37;;;11.20;99.90;;;;;;5116684;28;20644;-69
2021/10/11 09:48:12;;;;;;;30.10;20.23;;;11.40;99.90;;;;;;5116415;28;20468;-69
2021/10/11 09:50:40;;;;;;;27.50;19.67;;;11.40;99.90;;;;;;5115977;28;20558;-70
2021/10/11 09:53:08;;;;;;;35.40;20.90;;;11.50;99.90;;;;;;5116098;28;20490;-69
2021/10/11 09:55:37;;;;;;;27.83;19.97;;;11.50;99.90;;;;;;5116145;28;20460;-69
2021/10/11 09:58:06;;;;;;;29.53;20.77;;;11.50;99.90;;;;;;5116004;28;20685;-69
2021/10/11 10:00:33;;;;;;;27.73;20.10;;;11.50;99.90;;;;;;5115780;28;20475;-69
2021/10/11 10:03:00;;;;;;;32.10;20.47;;;11.40;99.90;;;;;;5115893;28;20486;-69
2021/10/11 10:05:33;;;;;;;30.57;20.47;;;11.50;99.90;;;;;;5115659;28;20958;-71
2021/10/11 10:08:02;;;;;;;26.73;19.17;;;11.50;99.90;;;;;;5115830;28;20506;-69
2021/10/11 10:10:30;;;;;;;28.20;18.97;;;11.50;99.90;;;;;;5115655;28;20468;-69
2021/10/11 10:12:56;;;;;;;30.47;19.67;;;11.60;99.90;;;;;;5115293;28;20487;-69
2021/10/11 10:15:29;;;;;;;27.50;18.07;;;11.70;99.90;;;;;;5115771;28;20517;-69
2021/10/11 10:18:03;;;;;;;25.40;18.10;;;11.70;99.90;;;;;;5115920;28;20442;-70
2021/10/11 10:20:30;;;;;;;24.67;15.97;;;11.90;99.90;;;;;;5116066;28;20781;-70
2021/10/11 10:22:58;;;;;;;27.77;18.07;;;12.00;99.90;;;;;;5115781;28;20484;-70
2021/10/11 10:25:24;;;;;;;21.73;16.07;;;12.00;99.90;;;;;;5115336;28;20919;-70
2021/10/11 10:27:54;;;;;;;27.47;17.77;;;12.10;99.90;;;;;;5116888;28;20472;-70
2021/10/11 10:30:23;;;;;;;25.67;18.20;;;12.20;99.90;;;;;;5115454;28;20490;-69
2021/10/11 10:32:59;;;;;;;27.53;17.60;;;12.20;99.90;;;;;;5115541;28;20489;-69
2021/10/11 10:35:28;;;;;;;23.90;16.70;;;12.20;99.90;;;;;;5115457;28;20948;-70
2021/10/11 10:37:56;;;;;;;23.90;16.13;;;12.20;99.90;;;;;;5115389;28;20457;-70
2021/10/11 10:40:27;;;;;;;26.13;17.23;;;12.30;99.90;;;;;;5115585;28;20524;-70
2021/10/11 10:43:05;;;;;;;19.73;14.10;;;12.40;99.90;;;;;;5115345;28;20897;-69
2021/10/11 10:45:34;;;;;;;21.77;14.83;;;12.50;99.90;;;;;;5114917;28;20456;-69
2021/10/11 10:48:03;;;;;;;24.73;14.77;;;12.70;99.90;;;;;;5114754;28;20868;-69
2021/10/11 10:50:33;;;;;;;17.70;12.57;;;12.80;99.90;;;;;;5115516;28;20437;-70
2021/10/11 10:53:02;;;;;;;21.43;12.43;;;13.00;99.90;;;;;;5115059;28;20487;-70
2021/10/11 10:55:29;;;;;;;22.30;13.23;;;13.20;99.90;;;;;;5114712;28;20490;-68
2021/10/11 10:57:59;;;;;;;17.77;12.03;;;13.30;99.90;;;;;;5114729;28;20924;-69
2021/10/11 11:00:26;;;;;;;16.47;11.90;;;13.40;99.90;;;;;;5114931;28;20460;-69
2021/10/11 11:02:54;;;;;;;21.00;11.50;;;13.40;99.90;;;;;;5115439;28;20456;-69
2021/10/11 11:05:24;;;;;;;14.43;10.13;;;13.40;99.90;;;;;;5114546;28;20525;-69
2021/10/11 11:07:53;;;;;;;17.47;9.80;;;13.50;99.90;;;;;;5117202;28;20463;-69
2021/10/11 11:10:22;;;;;;;18.13;9.37;;;13.60;99.90;;;;;;5116780;28;20798;-69
2021/10/11 11:12:53;;;;;;;14.17;8.50;;;13.70;99.90;;;;;;5115969;28;20814;-68
2021/10/11 11:15:28;;;;;;;14.40;9.30;;;13.90;99.90;;;;;;5115382;28;20440;-69
2021/10/11 11:17:55;;;;;;;15.10;10.10;;;14.00;99.90;;;;;;5114817;28;20478;-70
2021/10/11 11:20:26;;;;;;;11.27;8.53;;;14.20;99.90;;;;;;5114803;28;20456;-69
2021/10/11 11:22:54;;;;;;;13.80;9.17;;;14.50;99.90;;;;;;5115245;28;20433;-68
2021/10/11 11:25:28;;;;;;;13.67;8.57;;;14.70;99.90;;;;;;5114934;28;20460;-70
2021/10/11 11:27:56;;;;;;;14.20;8.87;;;14.80;99.90;;;;;;5114798;28;20453;-70
2021/10/11 11:30:23;;;;;;;11.87;7.17;;;14.90;99.90;;;;;;5114677;28;20468;-68
2021/10/11 11:32:51;;;;;;;13.10;7.20;;;15.00;99.90;;;;;;5114929;28;20500;-70
2021/10/11 11:35:25;;;;;;;12.40;6.90;;;15.10;99.90;;;;;;5115339;28;20908;-70
2021/10/11 11:37:55;;;;;;;12.73;9.90;;;15.20;99.90;;;;;;5114545;28;20452;-68
2021/10/11 11:40:24;;;;;;;12.53;8.70;;;15.20;99.90;;;;;;5114543;28;20776;-70
2021/10/11 11:42:52;;;;;;;15.00;9.40;;;15.40;99.90;;;;;;5114991;28;20449;-70
2021/10/11 11:45:21;;;;;;;16.60;10.67;;;15.60;99.90;;;;;;5114534;28;20456;-70
2021/10/11 11:47:49;;;;;;;13.33;9.57;;;15.90;99.90;;;;;;5115424;28;20460;-70
2021/10/11 11:50:18;;;;;;;12.43;7.83;;;16.40;99.90;;;;;;5114480;28;20487;-69
2021/10/11 11:52:51;;;;;;;15.07;7.83;;;16.80;99.90;;;;;;5114680;28;20492;-70
2021/10/11 11:55:19;;;;;;;13.30;8.10;;;16.80;99.90;;;;;;5114382;28;20536;-70
2021/10/11 11:57:45;;;;;;;13.43;6.87;;;16.50;99.90;;;;;;5114501;28;20909;-70
2021/10/11 12:00:14;;;;;;;11.83;7.50;;;16.20;99.90;;;;;;5114993;28;20463;-70
2021/10/11 12:02:45;;;;;;;15.40;8.83;;;16.00;99.90;;;;;;5114954;28;20453;-70
2021/10/11 12:05:12;;;;;;;14.30;7.00;;;16.20;99.90;;;;;;5114596;28;20480;-70
2021/10/11 12:07:43;;;;;;;9.10;5.33;;;16.20;99.90;;;;;;5114630;28;20831;-70
2021/10/11 12:10:13;;;;;;;11.47;5.40;;;15.90;99.90;;;;;;5117275;28;20480;-70
2021/10/11 12:12:40;;;;;;;13.67;5.87;;;15.50;99.90;;;;;;5117951;28;20508;-70
2021/10/11 12:15:18;;;;;;;13.67;5.07;;;15.10;99.90;;;;;;5118195;28;20457;-70
2021/10/11 12:17:47;;;;;;;13.70;4.77;;;14.80;99.90;;;;;;5118086;28;20455;-70
2021/10/11 12:20:15;;;;;;;11.20;4.33;;;15.00;99.90;;;;;;5117776;28;20461;-70
2021/10/11 12:22:42;;;;;;;7.20;4.37;;;15.90;99.90;;;;;;5118062;28;20453;-70
2021/10/11 12:25:11;;;;;;;9.00;4.27;;;16.50;99.90;;;;;;5118336;28;20877;-69
2021/10/11 12:27:39;;;;;;;13.40;4.43;;;17.30;99.90;;;;;;5118714;28;20464;-70
2021/10/11 12:30:09;;;;;;;6.63;4.20;;;17.90;99.90;;;;;;5118131;28;20464;-70
2021/10/11 12:32:37;;;;;;;8.80;3.80;;;18.40;99.90;;;;;;5118731;28;20525;-70
2021/10/11 12:35:05;;;;;;;7.20;4.03;;;18.90;99.90;;;;;;5118830;28;20509;-70
2021/10/11 12:37:40;;;;;;;12.23;5.17;;;19.20;99.90;;;;;;5117992;28;20468;-71